Altamont, South Dakota
Current Conditions -  °F | °C
As of 3:14 AM on Monday 20 Oct 2014 (Local Time) from KCNB Reporting Station
Clear Clear  
Wind Chill:   Ceiling: Unl
Heat Index:   Visibility: 10mi
Dew Point:   Wind: 8mph
Humidity: 77%   Direction: 260°W
Pressure: 29.99"   Gusts: NA
Location:  44.7895°N, 96.7201°W
Report Text: KCNB 200814Z AUTO 26007KT 10SM CLR 08/05 A2999 RMK AO2 T00830045
Loading
Personal Weather Stations






























Interactive Weather Map
Tropical Storm Tracking
New forecast layout! Learn more

10-Day Weather Forecast

Advertisements
Track Severe Weather on mobile